Time;durP1;ratioP1;P1;durP2;ratioP2;P2;SDS_P1;SDS_P2;PMS_P1;PMS_P2;Temp;Humidity;BMP_temperature;BMP_pressure;BME280_temperature;BME280_humidity;BME280_pressure;Samples;Min_cycle;Max_cycle;Signal;HPM_P1;HPM_P2
2023/04/11 00:01:28;;;;;;;8.63;4.68;;;;;;;;;;4976035;28;20424;-67
2023/04/11 00:03:53;;;;;;;8.70;4.90;;;;;;;;;;4974923;28;20037;-67
2023/04/11 00:06:18;;;;;;;8.87;4.67;;;;;;;;;;4974153;28;20121;-68
2023/04/11 00:08:44;;;;;;;10.13;5.00;;;;;;;;;;4974493;28;20063;-68
2023/04/11 00:11:09;;;;;;;9.15;4.50;;;;;;;;;;4974611;28;20030;-65
2023/04/11 00:13:35;;;;;;;9.43;4.97;;;;;;;;;;4977058;28;20429;-67
2023/04/11 00:16:02;;;;;;;9.10;4.72;;;;;;;;;;4982981;28;20019;-69
2023/04/11 00:18:27;;;;;;;8.00;4.30;;;;;;;;;;4989612;28;20039;-66
2023/04/11 00:20:52;;;;;;;7.22;3.97;;;;;;;;;;4987720;28;20041;-67
2023/04/11 00:23:20;;;;;;;9.13;4.63;;;;;;;;;;4991512;28;20099;-67
2023/04/11 00:25:45;;;;;;;7.85;4.38;;;;;;;;;;4988618;28;20057;-67
2023/04/11 00:28:10;;;;;;;8.43;4.47;;;;;;;;;;4980112;28;20026;-67
2023/04/11 00:30:36;;;;;;;7.90;4.20;;;;;;;;;;4975850;28;20023;-65
2023/04/11 00:33:02;;;;;;;8.27;4.05;;;;;;;;;;4975523;28;20097;-66
2023/04/11 00:35:28;;;;;;;7.30;4.20;;;;;;;;;;4974672;28;20061;-66
2023/04/11 00:37:55;;;;;;;7.50;4.18;;;;;;;;;;4974032;28;20450;-67
2023/04/11 00:40:20;;;;;;;8.43;4.40;;;;;;;;;;4974552;28;20122;-65
2023/04/11 00:42:46;;;;;;;8.00;4.07;;;;;;;;;;4974534;28;20019;-65
2023/04/11 00:45:11;;;;;;;7.68;4.20;;;;;;;;;;4974308;28;20030;-71
2023/04/11 00:47:37;;;;;;;8.70;4.50;;;;;;;;;;4973651;28;20109;-69
2023/04/11 00:50:02;;;;;;;8.18;4.03;;;;;;;;;;4974209;28;20167;-67
2023/04/11 00:52:27;;;;;;;8.63;4.72;;;;;;;;;;4974424;28;20081;-67
2023/04/11 00:54:53;;;;;;;7.67;4.20;;;;;;;;;;4973650;28;20029;-66
2023/04/11 00:57:18;;;;;;;7.90;4.13;;;;;;;;;;4973418;28;20038;-67
2023/04/11 00:59:43;;;;;;;8.30;4.07;;;;;;;;;;4973346;28;20510;-66
2023/04/11 01:02:09;;;;;;;7.00;3.77;;;;;;;;;;4973898;28;20039;-68
2023/04/11 01:04:34;;;;;;;8.55;4.38;;;;;;;;;;4973754;28;20111;-67
2023/04/11 01:07:02;;;;;;;7.83;4.13;;;;;;;;;;4973740;28;20105;-67
2023/04/11 01:09:28;;;;;;;7.20;4.30;;;;;;;;;;4973414;28;20060;-67
2023/04/11 01:11:53;;;;;;;8.70;4.53;;;;;;;;;;4973214;28;20015;-69
2023/04/11 01:14:19;;;;;;;9.02;4.70;;;;;;;;;;4973392;28;20027;-68
2023/04/11 01:16:49;;;;;;;9.27;4.75;;;;;;;;;;4972967;28;20026;-68
2023/04/11 01:19:16;;;;;;;8.02;4.18;;;;;;;;;;4973019;28;20035;-67
2023/04/11 01:21:42;;;;;;;7.25;4.32;;;;;;;;;;4973532;28;20033;-67
2023/04/11 01:24:07;;;;;;;8.88;4.57;;;;;;;;;;4960932;28;20106;-68
2023/04/11 01:26:32;;;;;;;9.30;4.65;;;;;;;;;;4953663;28;20027;-66
2023/04/11 01:28:57;;;;;;;9.50;4.70;;;;;;;;;;4954406;28;20032;-67
2023/04/11 01:31:23;;;;;;;9.10;4.83;;;;;;;;;;4956708;28;20110;-68
2023/04/11 01:33:48;;;;;;;8.48;4.70;;;;;;;;;;4960629;28;20027;-68
2023/04/11 01:36:13;;;;;;;9.25;4.72;;;;;;;;;;4960020;28;20027;-68
2023/04/11 01:38:38;;;;;;;8.57;4.50;;;;;;;;;;4961419;28;20542;-66
2023/04/11 01:41:04;;;;;;;8.67;4.87;;;;;;;;;;4960181;28;20403;-67
2023/04/11 01:43:30;;;;;;;7.60;4.32;;;;;;;;;;4959447;28;20482;-68
2023/04/11 01:45:55;;;;;;;9.73;5.20;;;;;;;;;;4960176;28;20025;-66
2023/04/11 01:48:20;;;;;;;9.80;5.43;;;;;;;;;;4959045;28;20039;-68
2023/04/11 01:50:45;;;;;;;8.63;5.13;;;;;;;;;;4954606;28;20391;-67
2023/04/11 01:53:10;;;;;;;8.70;4.73;;;;;;;;;;4958784;28;20115;-66
2023/04/11 01:55:36;;;;;;;7.82;4.47;;;;;;;;;;4972747;28;20025;-68
2023/04/11 01:58:01;;;;;;;9.03;4.80;;;;;;;;;;4972473;28;20081;-67
2023/04/11 02:00:26;;;;;;;8.63;4.40;;;;;;;;;;4972945;28;20031;-66
2023/04/11 02:02:51;;;;;;;8.43;4.47;;;;;;;;;;4972703;28;20029;-66
2023/04/11 02:05:17;;;;;;;8.30;4.47;;;;;;;;;;4972713;28;20031;-68
2023/04/11 02:07:43;;;;;;;7.90;4.35;;;;;;;;;;4972505;28;20113;-66
2023/04/11 02:10:08;;;;;;;;;;;;;;;;;;4973403;28;20047;-65
2023/04/11 02:12:34;;;;;;;10.02;4.35;;;;;;;;;;4988241;28;20409;-66
2023/04/11 02:14:59;;;;;;;8.03;4.50;;;;;;;;;;4972685;28;20102;-66
2023/04/11 02:17:25;;;;;;;8.67;4.70;;;;;;;;;;4971844;28;20360;-68
2023/04/11 02:19:50;;;;;;;8.20;3.92;;;;;;;;;;4972221;28;20031;-65
2023/04/11 02:22:16;;;;;;;8.68;4.07;;;;;;;;;;4972982;28;20070;-65
2023/04/11 02:24:41;;;;;;;8.88;3.90;;;;;;;;;;4972491;28;20015;-67
2023/04/11 02:27:06;;;;;;;10.07;4.20;;;;;;;;;;4972396;28;20521;-67
2023/04/11 02:29:32;;;;;;;7.63;4.05;;;;;;;;;;4973164;28;20081;-70
2023/04/11 02:31:57;;;;;;;8.90;4.10;;;;;;;;;;4972288;28;20111;-66
2023/04/11 02:34:22;;;;;;;7.37;3.70;;;;;;;;;;4973264;28;20026;-66
2023/04/11 02:36:48;;;;;;;9.43;4.07;;;;;;;;;;4971334;28;20109;-66
2023/04/11 02:39:13;;;;;;;8.30;4.10;;;;;;;;;;4973113;28;20031;-66
2023/04/11 02:41:39;;;;;;;9.57;4.30;;;;;;;;;;4973410;28;20479;-68
2023/04/11 02:44:04;;;;;;;10.13;4.18;;;;;;;;;;4972311;28;20054;-65
2023/04/11 02:46:29;;;;;;;8.40;4.27;;;;;;;;;;4971726;28;20030;-65
2023/04/11 02:48:54;;;;;;;8.05;4.50;;;;;;;;;;4971851;28;20509;-66
2023/04/11 02:51:20;;;;;;;10.07;4.20;;;;;;;;;;4972447;28;20389;-68
2023/04/11 02:53:45;;;;;;;9.68;4.70;;;;;;;;;;4971663;28;20094;-66
2023/04/11 02:56:10;;;;;;;9.05;4.32;;;;;;;;;;4971795;28;20386;-66
2023/04/11 02:58:37;;;;;;;9.40;4.50;;;;;;;;;;4972243;28;20023;-67
2023/04/11 03:01:05;;;;;;;11.55;4.70;;;;;;;;;;4974283;28;20550;-66
2023/04/11 03:03:30;;;;;;;10.45;4.18;;;;;;;;;;4976956;28;20029;-68
2023/04/11 03:05:55;;;;;;;13.48;4.47;;;;;;;;;;4980314;28;20034;-67
2023/04/11 03:08:21;;;;;;;11.68;4.50;;;;;;;;;;4993322;28;20031;-66
2023/04/11 03:10:46;;;;;;;9.15;4.65;;;;;;;;;;4996501;28;20085;-72
2023/04/11 03:13:11;;;;;;;10.15;3.90;;;;;;;;;;4992094;28;20030;-68
2023/04/11 03:15:36;;;;;;;7.82;4.00;;;;;;;;;;4984658;28;20051;-66
2023/04/11 03:18:01;;;;;;;9.38;4.45;;;;;;;;;;4971429;28;20034;-67
2023/04/11 03:20:27;;;;;;;8.87;4.53;;;;;;;;;;4971888;28;20122;-68
2023/04/11 03:22:52;;;;;;;9.60;4.05;;;;;;;;;;4970596;28;20026;-66
2023/04/11 03:25:17;;;;;;;8.43;4.47;;;;;;;;;;4971503;28;20062;-66
2023/04/11 03:27:42;;;;;;;8.03;3.97;;;;;;;;;;4971038;28;20520;-68
2023/04/11 03:30:07;;;;;;;8.80;4.10;;;;;;;;;;4971982;28;20038;-67
2023/04/11 03:32:33;;;;;;;8.27;4.30;;;;;;;;;;4971262;28;20422;-65
2023/04/11 03:34:59;;;;;;;8.53;4.60;;;;;;;;;;4971687;28;20023;-67
2023/04/11 03:37:24;;;;;;;8.20;4.60;;;;;;;;;;4971103;28;20015;-67
2023/04/11 03:39:49;;;;;;;8.73;4.30;;;;;;;;;;4972094;28;20026;-65
2023/04/11 03:42:15;;;;;;;8.77;4.77;;;;;;;;;;4971470;28;20026;-66
2023/04/11 03:44:40;;;;;;;7.97;4.37;;;;;;;;;;4971747;28;20030;-69
2023/04/11 03:47:05;;;;;;;8.57;4.43;;;;;;;;;;4971183;28;20965;-66
2023/04/11 03:49:30;;;;;;;8.17;4.80;;;;;;;;;;4974799;28;20035;-67
2023/04/11 03:51:55;;;;;;;9.15;4.78;;;;;;;;;;4974633;28;20015;-66
2023/04/11 03:54:20;;;;;;;8.82;5.07;;;;;;;;;;4974556;28;20142;-66
2023/04/11 03:56:45;;;;;;;8.85;5.05;;;;;;;;;;4974326;28;20031;-67
2023/04/11 03:59:10;;;;;;;8.98;4.97;;;;;;;;;;4974781;28;20510;-66
2023/04/11 04:01:36;;;;;;;9.25;4.60;;;;;;;;;;4974250;28;20019;-67
2023/04/11 04:04:02;;;;;;;9.23;5.20;;;;;;;;;;4974656;28;20050;-66
2023/04/11 04:06:28;;;;;;;9.93;5.65;;;;;;;;;;4973944;28;20023;-67
2023/04/11 04:08:53;;;;;;;9.55;4.70;;;;;;;;;;4974396;28;20359;-67
2023/04/11 04:11:18;;;;;;;8.93;5.10;;;;;;;;;;4974773;28;20112;-67
2023/04/11 04:13:43;;;;;;;9.20;5.27;;;;;;;;;;4975289;28;20030;-66
2023/04/11 04:16:08;;;;;;;8.85;4.88;;;;;;;;;;4977855;28;20410;-66
2023/04/11 04:18:34;;;;;;;9.30;4.93;;;;;;;;;;4977381;28;20023;-65
2023/04/11 04:20:59;;;;;;;9.95;5.38;;;;;;;;;;4974927;28;20105;-66
2023/04/11 04:23:24;;;;;;;10.52;5.32;;;;;;;;;;4974299;28;20015;-66
2023/04/11 04:25:50;;;;;;;8.82;5.25;;;;;;;;;;4974351;28;20109;-68
2023/04/11 04:28:19;;;;;;;9.43;5.03;;;;;;;;;;4974027;28;20062;-67
2023/04/11 04:30:48;;;;;;;11.82;5.90;;;;;;;;;;4974665;28;20050;-67
2023/04/11 04:33:14;;;;;;;10.98;5.70;;;;;;;;;;4974576;28;20101;-66
2023/04/11 04:35:39;;;;;;;11.17;5.90;;;;;;;;;;4974474;28;20102;-64
2023/04/11 04:38:05;;;;;;;9.97;5.47;;;;;;;;;;4974448;28;20022;-65
2023/04/11 04:40:30;;;;;;;9.65;5.03;;;;;;;;;;4973268;28;20073;-65
2023/04/11 04:42:58;;;;;;;10.93;6.30;;;;;;;;;;4974289;28;20077;-67
2023/04/11 04:45:24;;;;;;;13.02;5.63;;;;;;;;;;4974193;28;20023;-66
2023/04/11 04:47:49;;;;;;;10.40;6.13;;;;;;;;;;4971171;28;20062;-65
2023/04/11 04:50:15;;;;;;;9.13;5.03;;;;;;;;;;4972328;28;20027;-68
2023/04/11 04:52:40;;;;;;;11.00;5.65;;;;;;;;;;4963394;28;20020;-67
2023/04/11 04:55:06;;;;;;;9.60;5.43;;;;;;;;;;4954435;29;20103;-68
2023/04/11 04:57:31;;;;;;;10.63;5.93;;;;;;;;;;4952685;29;20109;-68
2023/04/11 04:59:56;;;;;;;10.70;6.25;;;;;;;;;;4953362;28;20059;-66
2023/04/11 05:02:22;;;;;;;10.37;5.70;;;;;;;;;;4954283;29;20031;-67
2023/04/11 05:04:50;;;;;;;10.33;6.27;;;;;;;;;;4953997;29;20177;-66
2023/04/11 05:07:19;;;;;;;10.43;6.15;;;;;;;;;;4953372;29;20051;-68
2023/04/11 05:09:44;;;;;;;11.00;6.15;;;;;;;;;;4954112;29;20424;-65
2023/04/11 05:12:10;;;;;;;11.00;6.50;;;;;;;;;;4954223;28;20027;-66
2023/04/11 05:14:35;;;;;;;12.20;6.67;;;;;;;;;;4953657;29;20130;-66
2023/04/11 05:17:00;;;;;;;11.45;6.47;;;;;;;;;;4952859;28;20027;-66
2023/04/11 05:19:25;;;;;;;12.70;6.90;;;;;;;;;;4953966;28;20047;-67
2023/04/11 05:21:50;;;;;;;12.80;6.80;;;;;;;;;;4953722;28;20024;-67
2023/04/11 05:24:15;;;;;;;11.47;6.27;;;;;;;;;;4953993;28;20031;-67
2023/04/11 05:26:41;;;;;;;11.52;6.18;;;;;;;;;;4953300;28;20020;-67
2023/04/11 05:29:06;;;;;;;10.77;6.00;;;;;;;;;;4968374;28;20023;-66
2023/04/11 05:31:31;;;;;;;10.20;5.75;;;;;;;;;;4953516;28;20043;-68
2023/04/11 05:33:57;;;;;;;12.02;6.20;;;;;;;;;;4959520;28;20387;-67
2023/04/11 05:36:22;;;;;;;10.48;5.85;;;;;;;;;;4953221;28;20089;-68
2023/04/11 05:38:47;;;;;;;11.27;6.38;;;;;;;;;;4953694;28;20035;-66
2023/04/11 05:41:12;;;;;;;11.43;6.38;;;;;;;;;;4953942;28;20543;-68
2023/04/11 05:43:38;;;;;;;11.73;6.23;;;;;;;;;;4953429;28;20174;-68
2023/04/11 05:46:03;;;;;;;11.73;6.27;;;;;;;;;;4953223;28;20019;-65
2023/04/11 05:48:28;;;;;;;10.90;6.13;;;;;;;;;;4952373;28;20035;-65
2023/04/11 05:50:54;;;;;;;11.17;5.90;;;;;;;;;;4960563;28;20023;-67
2023/04/11 05:53:20;;;;;;;10.30;5.80;;;;;;;;;;4972712;28;20041;-66
2023/04/11 05:55:45;;;;;;;11.10;6.50;;;;;;;;;;4972922;28;20022;-66
2023/04/11 05:58:10;;;;;;;10.17;6.00;;;;;;;;;;4972201;28;20977;-68
2023/04/11 06:00:37;;;;;;;12.33;6.17;;;;;;;;;;4972557;28;20027;-65
2023/04/11 06:03:02;;;;;;;10.82;6.05;;;;;;;;;;4973823;28;20074;-68
2023/04/11 06:05:30;;;;;;;14.13;5.35;;;;;;;;;;4972619;28;20663;-66
2023/04/11 06:07:57;;;;;;;11.40;6.30;;;;;;;;;;4972389;28;20387;-67
2023/04/11 06:10:22;;;;;;;14.52;6.22;;;;;;;;;;4972669;28;20022;-68
2023/04/11 06:12:47;;;;;;;13.15;6.38;;;;;;;;;;4972295;28;20025;-65
2023/04/11 06:15:12;;;;;;;12.00;6.17;;;;;;;;;;4972543;28;20026;-69
2023/04/11 06:17:37;;;;;;;12.67;7.07;;;;;;;;;;4971617;28;20026;-66
2023/04/11 06:20:04;;;;;;;10.60;6.30;;;;;;;;;;4972202;28;20473;-66
2023/04/11 06:22:30;;;;;;;12.02;6.47;;;;;;;;;;4972660;28;20074;-65
2023/04/11 06:24:55;;;;;;;12.70;6.53;;;;;;;;;;4972911;28;20026;-67
2023/04/11 06:27:20;;;;;;;12.45;6.68;;;;;;;;;;4972175;28;20485;-66
2023/04/11 06:29:45;;;;;;;12.05;6.10;;;;;;;;;;4972791;28;20027;-67
2023/04/11 06:32:10;;;;;;;12.40;6.20;;;;;;;;;;4972508;28;20022;-68
2023/04/11 06:34:37;;;;;;;11.88;6.63;;;;;;;;;;4972671;28;20086;-66
2023/04/11 06:37:02;;;;;;;;;;;;;;;;;;4972901;28;20046;-65
2023/04/11 06:39:27;;;;;;;11.30;6.35;;;;;;;;;;4973180;28;20016;-67
2023/04/11 06:41:52;;;;;;;13.23;6.53;;;;;;;;;;4972434;28;20050;-67
2023/04/11 06:44:18;;;;;;;10.45;5.82;;;;;;;;;;4972851;28;20703;-65
2023/04/11 06:46:43;;;;;;;12.90;6.25;;;;;;;;;;4972119;28;20026;-67
2023/04/11 06:49:08;;;;;;;11.20;6.20;;;;;;;;;;4971844;28;20043;-67
2023/04/11 06:51:34;;;;;;;14.43;6.95;;;;;;;;;;4971897;28;20533;-67
2023/04/11 06:53:59;;;;;;;12.93;6.65;;;;;;;;;;4972052;28;20050;-66
2023/04/11 06:56:24;;;;;;;11.18;5.82;;;;;;;;;;4971423;28;20065;-66
2023/04/11 06:58:49;;;;;;;11.00;6.10;;;;;;;;;;4972313;28;20034;-66
2023/04/11 07:01:15;;;;;;;10.40;6.17;;;;;;;;;;4971877;28;20133;-67
2023/04/11 07:03:40;;;;;;;12.10;6.30;;;;;;;;;;4971908;28;20074;-66
2023/04/11 07:06:06;;;;;;;13.35;6.70;;;;;;;;;;4971681;28;20034;-67
2023/04/11 07:08:31;;;;;;;10.90;5.78;;;;;;;;;;4971665;28;20106;-69
2023/04/11 07:10:56;;;;;;;7.90;4.13;;;;;;;;;;4971769;28;20054;-67
2023/04/11 07:13:21;;;;;;;7.97;4.30;;;;;;;;;;4972146;28;20061;-67
2023/04/11 07:15:46;;;;;;;8.75;3.97;;;;;;;;;;4972632;28;20031;-67
2023/04/11 07:18:12;;;;;;;8.65;3.65;;;;;;;;;;4971874;28;20239;-66
2023/04/11 07:20:37;;;;;;;8.68;3.70;;;;;;;;;;4972588;28;20026;-68
2023/04/11 07:23:03;;;;;;;8.27;3.70;;;;;;;;;;4974928;28;20023;-65
2023/04/11 07:25:32;;;;;;;7.65;3.53;;;;;;;;;;4976964;28;20419;-66
2023/04/11 07:27:59;;;;;;;7.47;3.67;;;;;;;;;;4979718;28;20023;-67
2023/04/11 07:30:24;;;;;;;;;;;;;;;;;;4980042;28;20022;-67
2023/04/11 07:32:49;;;;;;;6.90;2.90;;;;;;;;;;4979494;28;19906;-66
2023/04/11 07:35:15;;;;;;;8.57;3.23;;;;;;;;;;4975396;28;20526;-66
2023/04/11 07:37:41;;;;;;;6.30;2.80;;;;;;;;;;4974618;28;20019;-67
2023/04/11 07:40:10;;;;;;;6.25;3.05;;;;;;;;;;4975399;28;20081;-66
2023/04/11 07:42:35;;;;;;;6.82;2.63;;;;;;;;;;4975072;28;20094;-67
2023/04/11 07:45:00;;;;;;;6.65;2.75;;;;;;;;;;4975004;28;20106;-67
2023/04/11 07:47:25;;;;;;;5.97;2.33;;;;;;;;;;4970112;28;20038;-66
2023/04/11 07:49:51;;;;;;;6.93;2.38;;;;;;;;;;4966600;28;20132;-67
2023/04/11 07:52:16;;;;;;;4.80;2.08;;;;;;;;;;4975084;28;20011;-67
2023/04/11 07:54:41;;;;;;;5.95;2.00;;;;;;;;;;4975113;28;20011;-66
2023/04/11 07:57:06;;;;;;;6.60;2.40;;;;;;;;;;4974346;28;20027;-66
2023/04/11 07:59:32;;;;;;;4.55;1.80;;;;;;;;;;4975141;28;20018;-67
2023/04/11 08:01:58;;;;;;;4.55;1.83;;;;;;;;;;4976914;28;20033;-67
2023/04/11 08:04:23;;;;;;;;;;;;;;;;;;4971621;28;20027;-67
2023/04/11 08:06:48;;;;;;;4.97;1.85;;;;;;;;;;4974274;28;20005;-67
2023/04/11 08:09:14;;;;;;;5.40;2.22;;;;;;;;;;4974799;28;20022;-68
2023/04/11 08:11:39;;;;;;;5.53;2.10;;;;;;;;;;4974760;28;20061;-67
2023/04/11 08:14:04;;;;;;;5.07;2.35;;;;;;;;;;4974551;28;20421;-66
2023/04/11 08:16:29;;;;;;;5.53;2.10;;;;;;;;;;4973704;28;20512;-67
2023/04/11 08:18:56;;;;;;;5.90;1.97;;;;;;;;;;4974361;28;20023;-66
2023/04/11 08:21:23;;;;;;;4.43;1.80;;;;;;;;;;4974707;28;20057;-67
2023/04/11 08:23:48;;;;;;;6.13;1.83;;;;;;;;;;4974996;28;20106;-66
2023/04/11 08:26:14;;;;;;;4.30;1.90;;;;;;;;;;4977704;28;20514;-67
2023/04/11 08:28:39;;;;;;;5.07;1.60;;;;;;;;;;4993380;28;20015;-68
2023/04/11 08:31:04;;;;;;;5.47;1.70;;;;;;;;;;4993681;28;20026;-66
2023/04/11 08:33:29;;;;;;;5.53;1.63;;;;;;;;;;4985695;28;20506;-67
2023/04/11 08:35:55;;;;;;;4.07;1.57;;;;;;;;;;4982324;28;20026;-66
2023/04/11 08:38:20;;;;;;;5.22;1.73;;;;;;;;;;4987264;28;20014;-67
2023/04/11 08:40:45;;;;;;;4.60;1.98;;;;;;;;;;4989304;28;20034;-66
2023/04/11 08:43:11;;;;;;;4.83;1.50;;;;;;;;;;4975087;28;20034;-66
2023/04/11 08:45:39;;;;;;;5.35;1.55;;;;;;;;;;4974281;28;20106;-68
2023/04/11 08:48:05;;;;;;;3.63;1.45;;;;;;;;;;4973715;28;20027;-67
2023/04/11 08:50:31;;;;;;;4.10;1.30;;;;;;;;;;4974389;28;20119;-68
2023/04/11 08:52:58;;;;;;;5.10;1.70;;;;;;;;;;4974012;28;20113;-66
2023/04/11 08:55:23;;;;;;;5.93;1.88;;;;;;;;;;4973810;28;20023;-67
2023/04/11 08:57:48;;;;;;;5.65;2.00;;;;;;;;;;4971770;28;20526;-67
2023/04/11 09:00:15;;;;;;;9.25;2.20;;;;;;;;;;4973516;28;20023;-67
2023/04/11 09:03:00;;;;;;;5.88;2.10;;;;;;;;;;4973893;28;20065;-68
2023/04/11 09:05:26;;;;;;;4.45;1.83;;;;;;;;;;4973836;28;20479;-66
2023/04/11 09:07:51;;;;;;;4.65;1.58;;;;;;;;;;4973293;28;20022;-65
2023/04/11 09:10:18;;;;;;;4.70;1.77;;;;;;;;;;4973659;28;20054;-67
2023/04/11 09:12:43;;;;;;;;;;;;;;;;;;4974053;28;20027;-66
2023/04/11 09:15:35;;;;;;;4.65;1.50;;;;;;;;;;4973752;28;19913;-66
2023/04/11 09:18:00;;;;;;;5.18;1.90;;;;;;;;;;4971655;28;20042;-65
2023/04/11 09:20:26;;;;;;;5.18;1.42;;;;;;;;;;4973479;28;20022;-68
2023/04/11 09:22:52;;;;;;;5.50;1.70;;;;;;;;;;4973408;28;20063;-67
2023/04/11 09:25:18;;;;;;;5.25;1.33;;;;;;;;;;4973334;28;20382;-66
2023/04/11 09:27:43;;;;;;;7.38;1.42;;;;;;;;;;4971418;28;20015;-67
2023/04/11 09:30:25;;;;;;;4.68;1.60;;;;;;;;;;4973291;28;20110;-66
2023/04/11 09:32:53;;;;;;;5.43;1.60;;;;;;;;;;4973169;28;20026;-65
2023/04/11 09:35:23;;;;;;;4.35;1.42;;;;;;;;;;4973489;28;20029;-66
2023/04/11 09:37:56;;;;;;;6.78;1.58;;;;;;;;;;4972467;28;20053;-66
2023/04/11 09:40:22;;;;;;;5.72;1.40;;;;;;;;;;4973154;28;20074;-66
2023/04/11 09:42:48;;;;;;;4.88;1.30;;;;;;;;;;4972748;28;20067;-66
2023/04/11 09:45:24;;;;;;;4.35;1.33;;;;;;;;;;4972415;28;20364;-68
2023/04/11 09:47:51;;;;;;;7.88;2.33;;;;;;;;;;4970691;28;20667;-66
2023/04/11 09:50:16;;;;;;;5.97;1.48;;;;;;;;;;4972344;28;20065;-67
2023/04/11 09:52:42;;;;;;;5.47;1.48;;;;;;;;;;4973009;28;20430;-68
2023/04/11 09:55:18;;;;;;;7.60;1.50;;;;;;;;;;4975027;28;20387;-65
2023/04/11 09:57:44;;;;;;;4.55;1.40;;;;;;;;;;4972173;28;20035;-68
2023/04/11 10:00:14;;;;;;;5.10;1.30;;;;;;;;;;4972724;28;20031;-67
2023/04/11 10:02:40;;;;;;;5.63;1.50;;;;;;;;;;4972266;28;20422;-67
2023/04/11 10:05:07;;;;;;;4.55;1.40;;;;;;;;;;4971420;28;20027;-67
2023/04/11 10:07:32;;;;;;;;;;;;;;;;;;4953202;28;20110;-67
2023/04/11 10:09:57;;;;;;;5.72;1.50;;;;;;;;;;4953450;28;20006;-66
2023/04/11 10:12:29;;;;;;;4.85;1.13;;;;;;;;;;4968043;28;20074;-67
2023/04/11 10:14:55;;;;;;;5.78;1.40;;;;;;;;;;4967867;28;20031;-67
2023/04/11 10:17:20;;;;;;;5.75;1.60;;;;;;;;;;4952504;28;20368;-68
2023/04/11 10:19:47;;;;;;;4.45;1.42;;;;;;;;;;4953223;28;20038;-68
2023/04/11 10:22:31;;;;;;;6.30;1.90;;;;;;;;;;4953110;28;20145;-67
2023/04/11 10:25:15;;;;;;;5.00;1.27;;;;;;;;;;4952840;28;20027;-67
2023/04/11 10:27:40;;;;;;;;;;;;;;;;;;4952739;28;20023;-66
2023/04/11 10:30:06;;;;;;;5.03;1.45;;;;;;;;;;4952940;28;19913;-66
2023/04/11 10:32:31;;;;;;;5.30;1.60;;;;;;;;;;4952793;28;20625;-66
2023/04/11 10:34:57;;;;;;;6.10;1.40;;;;;;;;;;4952746;28;20031;-67
2023/04/11 10:37:28;;;;;;;4.88;1.75;;;;;;;;;;4952348;28;20081;-66
2023/04/11 10:39:53;;;;;;;5.97;1.30;;;;;;;;;;4953124;28;20031;-66
2023/04/11 10:42:32;;;;;;;5.57;1.48;;;;;;;;;;4952838;28;20070;-66
2023/04/11 10:45:17;;;;;;;6.25;1.50;;;;;;;;;;4953381;28;20395;-67
2023/04/11 10:47:42;;;;;;;5.90;1.52;;;;;;;;;;4967249;28;20144;-67
2023/04/11 10:50:26;;;;;;;5.05;1.33;;;;;;;;;;4952199;28;20697;-66
2023/04/11 10:52:55;;;;;;;5.22;1.40;;;;;;;;;;4951779;29;20024;-66
2023/04/11 10:55:21;;;;;;;9.40;1.67;;;;;;;;;;4951859;28;20019;-68
2023/04/11 10:58:07;;;;;;;3.67;1.20;;;;;;;;;;4952514;28;20035;-66
2023/04/11 11:00:51;;;;;;;7.43;1.73;;;;;;;;;;4955494;28;20039;-66
2023/04/11 11:03:20;;;;;;;4.55;1.38;;;;;;;;;;4955417;28;20015;-67
2023/04/11 11:05:45;;;;;;;6.03;1.35;;;;;;;;;;4956987;28;20015;-68
2023/04/11 11:08:10;;;;;;;4.00;1.05;;;;;;;;;;4957279;28;20032;-67
2023/04/11 11:10:36;;;;;;;4.23;1.17;;;;;;;;;;4959753;29;20057;-69
2023/04/11 11:13:03;;;;;;;6.35;1.42;;;;;;;;;;4960650;28;20019;-66
2023/04/11 11:15:28;;;;;;;4.75;1.00;;;;;;;;;;4968786;28;20016;-65
2023/04/11 11:17:53;;;;;;;4.70;1.17;;;;;;;;;;4963735;28;20030;-67
2023/04/11 11:20:20;;;;;;;5.17;1.00;;;;;;;;;;4961980;28;20023;-67
2023/04/11 11:22:58;;;;;;;3.85;0.90;;;;;;;;;;4964203;28;20469;-68
2023/04/11 11:25:24;;;;;;;;;;;;;;;;;;4963222;28;20028;-66
2023/04/11 11:27:56;;;;;;;4.35;1.35;;;;;;;;;;4960021;28;20309;-66
2023/04/11 11:30:22;;;;;;;2.67;0.85;;;;;;;;;;4958535;28;20019;-66
2023/04/11 11:32:47;;;;;;;4.53;0.90;;;;;;;;;;4975863;28;20509;-66
2023/04/11 11:35:12;;;;;;;4.60;1.10;;;;;;;;;;4975690;28;20030;-66
2023/04/11 11:37:37;;;;;;;4.33;1.17;;;;;;;;;;4974297;28;20102;-67
2023/04/11 11:40:08;;;;;;;4.27;1.17;;;;;;;;;;4975501;28;20030;-66
2023/04/11 11:42:33;;;;;;;4.18;1.08;;;;;;;;;;4959730;28;20074;-65
2023/04/11 11:45:14;;;;;;;3.40;1.00;;;;;;;;;;4966691;28;20030;-66
2023/04/11 11:47:40;;;;;;;3.65;0.95;;;;;;;;;;4963148;28;20094;-66
2023/04/11 11:50:06;;;;;;;4.03;1.10;;;;;;;;;;4929056;28;1002313;-68
2023/04/11 11:52:32;;;;;;;4.05;1.00;;;;;;;;;;4956829;28;20019;-66
2023/04/11 11:54:57;;;;;;;4.20;0.90;;;;;;;;;;4956230;28;20024;-66
2023/04/11 11:57:23;;;;;;;4.07;1.05;;;;;;;;;;4955360;28;20021;-65
2023/04/11 11:59:55;;;;;;;5.53;1.63;;;;;;;;;;4955445;28;20031;-67
2023/04/11 12:02:21;;;;;;;3.03;0.90;;;;;;;;;;4956945;28;20034;-66
2023/04/11 12:04:46;;;;;;;5.20;1.00;;;;;;;;;;4974834;28;20027;-67
2023/04/11 12:07:11;;;;;;;4.70;1.25;;;;;;;;;;4974263;28;20110;-65
2023/04/11 12:09:37;;;;;;;4.20;1.08;;;;;;;;;;4974295;28;20046;-66
2023/04/11 12:12:07;;;;;;;4.07;1.00;;;;;;;;;;4974901;28;20035;-67
2023/04/11 12:14:32;;;;;;;4.20;1.05;;;;;;;;;;4974792;28;20892;-67
2023/04/11 12:16:57;;;;;;;3.17;1.00;;;;;;;;;;4974306;28;20101;-66
2023/04/11 12:19:22;;;;;;;3.67;1.00;;;;;;;;;;4974728;28;20029;-68
2023/04/11 12:21:47;;;;;;;4.65;1.15;;;;;;;;;;4974228;28;20090;-67
2023/04/11 12:24:13;;;;;;;4.50;1.00;;;;;;;;;;4974391;28;20031;-69
2023/04/11 12:26:38;;;;;;;4.93;1.00;;;;;;;;;;4974220;28;20219;-68
2023/04/11 12:29:06;;;;;;;3.27;1.13;;;;;;;;;;4974340;28;20046;-66
2023/04/11 12:31:31;;;;;;;5.28;1.10;;;;;;;;;;4974142;28;20023;-66
2023/04/11 12:33:56;;;;;;;4.95;1.52;;;;;;;;;;4974157;28;20054;-66
2023/04/11 12:36:21;;;;;;;6.22;1.20;;;;;;;;;;4973724;28;20026;-67
2023/04/11 12:38:46;;;;;;;4.90;1.10;;;;;;;;;;4974144;28;20015;-68
2023/04/11 12:41:12;;;;;;;4.20;1.10;;;;;;;;;;4974059;28;20034;-67
2023/04/11 12:43:37;;;;;;;4.27;1.13;;;;;;;;;;4989116;28;20015;-68
2023/04/11 12:46:02;;;;;;;4.80;1.10;;;;;;;;;;4974466;28;20026;-70
2023/04/11 12:48:27;;;;;;;3.53;1.00;;;;;;;;;;4974084;28;20061;-67
2023/04/11 12:50:53;;;;;;;5.75;1.48;;;;;;;;;;4974101;28;20069;-67
2023/04/11 12:53:19;;;;;;;5.05;1.10;;;;;;;;;;4974747;28;20027;-67
2023/04/11 12:55:44;;;;;;;2.47;0.93;;;;;;;;;;4972991;28;20090;-66
2023/04/11 12:58:09;;;;;;;4.80;1.47;;;;;;;;;;4973957;28;20022;-66
2023/04/11 13:00:35;;;;;;;5.10;1.37;;;;;;;;;;4972781;28;20026;-65
2023/04/11 13:03:00;;;;;;;5.82;1.52;;;;;;;;;;4974108;28;20471;-67
2023/04/11 13:05:26;;;;;;;4.00;1.25;;;;;;;;;;4968769;28;20031;-66
2023/04/11 13:07:51;;;;;;;4.53;1.58;;;;;;;;;;4967488;28;20029;-68
2023/04/11 13:10:16;;;;;;;5.90;1.60;;;;;;;;;;4973522;28;20039;-66
2023/04/11 13:12:43;;;;;;;4.72;1.30;;;;;;;;;;4973963;28;20715;-67
2023/04/11 13:15:09;;;;;;;4.70;1.63;;;;;;;;;;4973764;28;20033;-66
2023/04/11 13:17:34;;;;;;;8.02;1.40;;;;;;;;;;4973095;28;20444;-65
2023/04/11 13:20:01;;;;;;;5.67;1.30;;;;;;;;;;4987446;28;20054;-66
2023/04/11 13:22:26;;;;;;;4.25;1.38;;;;;;;;;;4972105;28;20077;-67
2023/04/11 13:24:51;;;;;;;4.10;1.25;;;;;;;;;;4973439;28;20514;-67
2023/04/11 13:27:16;;;;;;;4.53;1.30;;;;;;;;;;4973101;28;20058;-65
2023/04/11 13:29:42;;;;;;;2.93;1.00;;;;;;;;;;4973428;28;20018;-66
2023/04/11 13:32:07;;;;;;;4.27;1.10;;;;;;;;;;4973165;28;20019;-67
2023/04/11 13:34:32;;;;;;;4.03;1.02;;;;;;;;;;4973304;28;20018;-66
2023/04/11 13:36:57;;;;;;;3.67;1.15;;;;;;;;;;4972634;28;20486;-67
2023/04/11 13:39:23;;;;;;;4.07;0.95;;;;;;;;;;4973145;28;20026;-67
2023/04/11 13:41:48;;;;;;;4.25;1.40;;;;;;;;;;4974774;28;20093;-66
2023/04/11 13:44:13;;;;;;;5.40;1.30;;;;;;;;;;4988011;28;20011;-67
2023/04/11 13:46:38;;;;;;;3.92;1.20;;;;;;;;;;4972865;28;20217;-66
2023/04/11 13:49:05;;;;;;;3.30;1.15;;;;;;;;;;4973100;28;20402;-68
2023/04/11 13:51:30;;;;;;;;;;;;;;;;;;4973318;28;20022;-67
2023/04/11 13:53:55;;;;;;;4.65;1.02;;;;;;;;;;4973570;28;19917;-68
2023/04/11 13:56:20;;;;;;;4.75;1.30;;;;;;;;;;4975672;28;20920;-67
2023/04/11 13:58:46;;;;;;;4.77;1.47;;;;;;;;;;4981148;28;20080;-68
2023/04/11 14:01:11;;;;;;;3.67;1.40;;;;;;;;;;4979083;28;20057;-67
2023/04/11 14:03:36;;;;;;;4.40;1.40;;;;;;;;;;4981821;28;20023;-67
2023/04/11 14:06:02;;;;;;;4.43;1.20;;;;;;;;;;4978627;28;20094;-67
2023/04/11 14:08:27;;;;;;;5.35;1.50;;;;;;;;;;4984868;28;20538;-67
2023/04/11 14:10:54;;;;;;;5.28;1.10;;;;;;;;;;4982921;28;20054;-67
2023/04/11 14:13:19;;;;;;;3.30;1.15;;;;;;;;;;4981731;28;20027;-67
2023/04/11 14:15:44;;;;;;;4.47;1.30;;;;;;;;;;4977048;28;20019;-66
2023/04/11 14:18:10;;;;;;;3.93;1.20;;;;;;;;;;4976793;28;20015;-67
2023/04/11 14:20:35;;;;;;;4.30;1.40;;;;;;;;;;4977344;28;20097;-66
2023/04/11 14:23:00;;;;;;;4.50;1.20;;;;;;;;;;4977185;28;20025;-68
2023/04/11 14:25:25;;;;;;;4.47;1.50;;;;;;;;;;4977402;28;20026;-66
2023/04/11 14:27:50;;;;;;;4.40;1.50;;;;;;;;;;4977497;28;20038;-67
2023/04/11 14:30:16;;;;;;;5.43;1.43;;;;;;;;;;4980782;28;20027;-68
2023/04/11 14:32:41;;;;;;;4.75;1.15;;;;;;;;;;4979963;28;20023;-68
2023/04/11 14:35:08;;;;;;;4.13;1.30;;;;;;;;;;4975491;28;20118;-67
2023/04/11 14:37:33;;;;;;;3.92;1.30;;;;;;;;;;4972641;28;20512;-66